createdAt,value
2019-01-21T00:00:42.679Z,77.73
2019-01-21T00:03:14.497Z,74.27
2019-01-21T00:05:39.440Z,69.87
2019-01-21T00:08:08.722Z,80.60
2019-01-21T00:10:38.043Z,73.17
2019-01-21T00:13:07.287Z,74.20
2019-01-21T00:15:36.698Z,74.30
2019-01-21T00:18:05.926Z,71.17
2019-01-21T00:20:35.248Z,75.17
2019-01-21T00:23:04.633Z,73.43
2019-01-21T00:25:33.968Z,74.70
2019-01-21T00:28:03.238Z,78.53
2019-01-21T00:30:32.550Z,73.70
2019-01-21T00:33:01.840Z,70.37
2019-01-21T00:35:31.167Z,68.40
2019-01-21T00:38:00.394Z,76.63
2019-01-21T00:40:29.870Z,74.03
2019-01-21T00:42:59.239Z,65.83
2019-01-21T00:45:28.616Z,69.47
2019-01-21T00:47:57.880Z,72.17
2019-01-21T00:50:27.116Z,78.63
2019-01-21T00:52:56.389Z,61.53
2019-01-21T00:55:25.680Z,66.40
2019-01-21T00:57:54.972Z,74.83
2019-01-21T01:00:25.674Z,87.93
2019-01-21T01:02:54.946Z,76.53
2019-01-21T01:05:24.257Z,78.40
2019-01-21T01:07:53.471Z,63.93
2019-01-21T01:10:22.735Z,65.77
2019-01-21T01:12:52.004Z,74.27
2019-01-21T01:15:21.283Z,66.37
2019-01-21T01:17:50.593Z,74.83
2019-01-21T01:20:21.108Z,75.03
2019-01-21T01:22:50.655Z,67.33
2019-01-21T01:25:19.948Z,66.70
2019-01-21T01:27:49.243Z,76.53
2019-01-21T01:30:18.516Z,62.03
2019-01-21T01:32:47.848Z,66.53
2019-01-21T01:35:17.475Z,65.83
2019-01-21T01:37:46.738Z,60.57
2019-01-21T01:40:20.050Z,63.60
2019-01-21T01:42:49.681Z,71.03
2019-01-21T01:45:23.770Z,66.53
2019-01-21T01:48:11.092Z,69.77
2019-01-21T01:50:40.368Z,72.90
2019-01-21T01:53:09.709Z,65.03
2019-01-21T01:55:39.097Z,70.70
2019-01-21T01:58:08.424Z,65.73
2019-01-21T02:00:37.640Z,63.83
2019-01-21T02:03:06.917Z,63.83
2019-01-21T02:05:36.307Z,66.70
2019-01-21T02:08:05.561Z,68.17
2019-01-21T02:10:34.926Z,66.17
2019-01-21T02:13:04.191Z,61.57
2019-01-21T02:15:33.511Z,67.20
2019-01-21T02:18:02.772Z,60.90
2019-01-21T02:20:32.115Z,64.53
2019-01-21T02:23:04.351Z,62.37
2019-01-21T02:25:54.561Z,62.20
2019-01-21T02:28:38.010Z,66.30
2019-01-21T02:32:07.006Z,59.87
2019-01-21T02:34:45.247Z,65.03
2019-01-21T02:37:30.501Z,63.33
2019-01-21T02:41:06.031Z,59.40
2019-01-21T02:43:44.513Z,64.57
2019-01-21T02:46:39.446Z,58.57
2019-01-21T02:49:36.113Z,62.73
2019-01-21T02:52:32.983Z,60.47
2019-01-21T02:55:20.174Z,66.67
2019-01-21T02:58:21.319Z,66.37
2019-01-21T03:01:16.924Z,63.97
2019-01-21T03:04:14.963Z,67.20
2019-01-21T03:06:59.258Z,59.83
2019-01-21T03:10:13.331Z,70.23
2019-01-21T03:13:14.758Z,64.10
2019-01-21T03:16:11.426Z,64.80
2019-01-21T03:19:18.700Z,58.87
2019-01-21T03:22:34.981Z,64.83
2019-01-21T03:25:41.684Z,62.77
2019-01-21T03:28:51.640Z,62.20
2019-01-21T03:31:38.094Z,56.63
2019-01-21T03:34:17.256Z,54.57
2019-01-21T03:37:13.673Z,66.83
2019-01-21T03:40:23.129Z,61.07
2019-01-21T03:43:37.777Z,57.07
2019-01-21T03:46:30.520Z,59.00
2019-01-21T03:49:08.339Z,59.13
2019-01-21T03:52:18.024Z,55.93
2019-01-21T03:54:58.376Z,55.30
2019-01-21T03:57:37.638Z,55.37
2019-01-21T04:00:44.752Z,60.10
2019-01-21T04:03:52.737Z,59.30
2019-01-21T04:06:58.692Z,56.03
2019-01-21T04:10:12.650Z,60.20
2019-01-21T04:13:32.427Z,57.43
2019-01-21T04:16:30.524Z,55.43
2019-01-21T04:19:21.516Z,81.00
2019-01-21T04:22:22.444Z,74.70
2019-01-21T04:25:36.130Z,64.27
2019-01-21T04:28:11.728Z,55.43
2019-01-21T04:31:09.668Z,58.67
2019-01-21T04:34:17.421Z,56.07
2019-01-21T04:37:19.574Z,61.30
2019-01-21T04:40:11.391Z,55.00
2019-01-21T04:43:04.951Z,58.00
2019-01-21T04:46:04.696Z,51.93
2019-01-21T04:48:53.310Z,56.57
2019-01-21T04:51:38.512Z,52.67
2019-01-21T04:54:44.660Z,53.87
2019-01-21T04:57:37.004Z,52.33
2019-01-21T05:01:02.793Z,49.57
2019-01-21T05:04:12.694Z,55.40
2019-01-21T05:07:01.937Z,51.77
2019-01-21T05:10:22.064Z,51.07
2019-01-21T05:13:32.130Z,51.37
2019-01-21T05:16:28.871Z,53.17
2019-01-21T05:19:11.058Z,53.77
2019-01-21T05:22:19.572Z,55.73
2019-01-21T05:25:39.174Z,54.40
2019-01-21T05:28:34.767Z,57.37
2019-01-21T05:31:45.564Z,77.17
2019-01-21T05:34:42.203Z,66.37
2019-01-21T05:37:32.279Z,51.70
2019-01-21T05:40:11.625Z,48.93
2019-01-21T05:43:03.443Z,51.70
2019-01-21T05:46:08.919Z,68.13
2019-01-21T05:49:12.188Z,53.57
2019-01-21T05:52:15.047Z,55.83
2019-01-21T05:55:19.007Z,50.90
2019-01-21T05:58:35.998Z,59.47
2019-01-21T06:01:45.734Z,55.57
2019-01-21T06:04:45.582Z,56.83
2019-01-21T06:07:41.114Z,60.13
2019-01-21T06:10:38.855Z,61.80
2019-01-21T06:13:58.968Z,56.47
2019-01-21T06:16:50.178Z,61.77
2019-01-21T06:20:02.183Z,57.27
2019-01-21T06:23:14.969Z,57.97
2019-01-21T06:26:02.928Z,60.97
2019-01-21T06:29:16.187Z,64.30
2019-01-21T06:32:27.158Z,60.07
2019-01-21T06:35:29.822Z,55.90
2019-01-21T06:38:25.162Z,62.57
2019-01-21T06:41:33.242Z,59.53
2019-01-21T06:44:32.055Z,57.67
2019-01-21T06:47:58.257Z,55.63
2019-01-21T06:50:58.296Z,61.07
2019-01-21T06:53:55.043Z,63.37
2019-01-21T06:57:12.816Z,56.83
2019-01-21T07:00:14.905Z,57.60
2019-01-21T07:03:27.680Z,51.93
2019-01-21T07:06:37.667Z,52.57
2019-01-21T07:09:30.994Z,64.33
2019-01-21T07:12:48.535Z,56.97
2019-01-21T07:15:57.986Z,62.50
2019-01-21T07:19:18.162Z,56.90
2019-01-21T07:22:29.138Z,57.67
2019-01-21T07:25:46.450Z,55.70
2019-01-21T07:28:44.110Z,57.90
2019-01-21T07:31:56.958Z,56.03
2019-01-21T07:35:07.921Z,63.53
2019-01-21T07:38:16.067Z,60.93
2019-01-21T07:41:06.834Z,53.97
2019-01-21T07:44:19.234Z,50.40
2019-01-21T07:47:35.927Z,51.50
2019-01-21T07:50:45.576Z,46.23
2019-01-21T07:54:00.174Z,53.40
2019-01-21T07:56:55.109Z,56.43
2019-01-21T07:59:46.186Z,54.33
2019-01-21T08:02:49.073Z,48.77
2019-01-21T08:05:55.892Z,50.70
2019-01-21T08:08:50.112Z,52.30
2019-01-21T08:11:52.817Z,49.17
2019-01-21T08:14:40.787Z,51.83
2019-01-21T08:17:54.626Z,43.67
2019-01-21T08:21:17.362Z,53.43
2019-01-21T08:24:24.926Z,46.30
2019-01-21T08:27:24.564Z,46.63
2019-01-21T08:30:37.324Z,44.80
2019-01-21T08:33:55.043Z,46.20
2019-01-21T08:36:38.701Z,43.00
2019-01-21T08:40:01.534Z,39.27
2019-01-21T08:43:15.238Z,39.87
2019-01-21T08:46:22.404Z,44.90
2019-01-21T08:49:14.987Z,40.47
2019-01-21T08:52:23.134Z,40.80
2019-01-21T08:55:26.860Z,41.33
2019-01-21T08:58:27.084Z,40.33
2019-01-21T09:01:42.760Z,43.00
2019-01-21T09:05:27.769Z,44.27
2019-01-21T09:08:37.585Z,40.90
2019-01-21T09:12:05.574Z,39.20
2019-01-21T09:15:08.926Z,41.53
2019-01-21T09:18:17.104Z,40.07
2019-01-21T09:21:40.520Z,41.50
2019-01-21T09:25:01.458Z,42.80
2019-01-21T09:27:55.922Z,44.17
2019-01-21T09:30:59.744Z,40.37
2019-01-21T09:34:21.358Z,42.63
2019-01-21T09:37:37.158Z,43.37
2019-01-21T09:40:54.564Z,40.83
2019-01-21T09:43:51.656Z,39.27
2019-01-21T09:46:44.460Z,40.10
2019-01-21T09:49:12.775Z,42.60
2019-01-21T09:52:05.083Z,40.20
2019-01-21T09:54:32.938Z,37.67
2019-01-21T09:57:04.761Z,36.57
2019-01-21T09:59:34.416Z,40.03
2019-01-21T10:02:06.526Z,38.27
2019-01-21T10:04:39.723Z,39.93
2019-01-21T10:07:44.960Z,38.93
2019-01-21T10:10:33.144Z,34.13
2019-01-21T10:13:49.960Z,39.37
2019-01-21T10:17:12.590Z,36.73
2019-01-21T10:20:28.464Z,36.70
2019-01-21T10:23:42.290Z,39.10
2019-01-21T10:27:17.509Z,38.93
2019-01-21T10:30:37.318Z,40.27
2019-01-21T10:33:50.393Z,37.97
2019-01-21T10:36:57.714Z,39.33
2019-01-21T10:40:23.301Z,37.30
2019-01-21T10:43:16.379Z,36.93
2019-01-21T10:46:01.746Z,37.50
2019-01-21T10:49:24.884Z,30.53
2019-01-21T10:52:38.734Z,34.53
2019-01-21T10:55:45.784Z,32.90
2019-01-21T10:59:05.602Z,34.27
2019-01-21T11:01:53.442Z,32.63
2019-01-21T11:04:42.906Z,29.53
2019-01-21T11:07:39.580Z,30.63
2019-01-21T11:10:32.798Z,31.43
2019-01-21T11:13:41.500Z,31.67
2019-01-21T11:16:41.856Z,33.03
2019-01-21T11:19:53.670Z,31.80
2019-01-21T11:22:48.124Z,29.30
2019-01-21T11:25:46.044Z,31.03
2019-01-21T11:29:02.369Z,32.73
2019-01-21T11:32:17.927Z,35.20
2019-01-21T11:35:03.488Z,27.93
2019-01-21T11:38:11.319Z,26.57
2019-01-21T11:41:11.688Z,26.20
2019-01-21T11:44:04.173Z,24.90
2019-01-21T11:46:57.350Z,23.07
2019-01-21T11:50:10.628Z,20.57
2019-01-21T11:53:11.726Z,20.87
2019-01-21T11:56:22.635Z,21.63
2019-01-21T11:59:32.445Z,20.90
2019-01-21T12:03:04.749Z,17.07
2019-01-21T12:06:04.428Z,19.17
2019-01-21T12:09:02.630Z,19.03
2019-01-21T12:11:43.267Z,17.20
2019-01-21T12:14:50.286Z,19.20
2019-01-21T12:17:52.014Z,18.63
2019-01-21T12:20:54.844Z,19.13
2019-01-21T12:23:36.170Z,18.00
2019-01-21T12:26:37.820Z,20.17
2019-01-21T12:29:22.255Z,19.70
2019-01-21T12:32:39.526Z,21.93
2019-01-21T12:35:33.792Z,20.93
2019-01-21T12:38:54.082Z,19.17
2019-01-21T12:42:07.198Z,22.10
2019-01-21T12:45:18.619Z,22.73
2019-01-21T12:48:35.685Z,19.40
2019-01-21T12:51:46.758Z,19.50
2019-01-21T12:54:59.458Z,22.03
2019-01-21T12:58:09.711Z,20.63
2019-01-21T13:01:00.440Z,20.80
2019-01-21T13:04:16.746Z,19.83
2019-01-21T13:07:20.497Z,21.60
2019-01-21T13:10:39.651Z,20.53
2019-01-21T13:14:02.666Z,19.53
2019-01-21T13:17:26.216Z,21.73
2019-01-21T13:20:10.745Z,21.03
2019-01-21T13:23:03.030Z,21.27
2019-01-21T13:26:12.912Z,20.83
2019-01-21T13:28:47.513Z,22.80
2019-01-21T13:31:30.560Z,20.50
2019-01-21T13:34:18.052Z,19.30
2019-01-21T13:37:24.874Z,18.27
2019-01-21T13:40:30.684Z,20.40
2019-01-21T13:43:10.959Z,19.67
2019-01-21T13:46:21.714Z,21.80
2019-01-21T13:49:16.638Z,19.73
2019-01-21T13:52:36.394Z,18.87
2019-01-21T13:55:39.688Z,19.97
2019-01-21T13:58:50.796Z,20.10
2019-01-21T14:01:30.459Z,24.03
2019-01-21T14:04:31.288Z,20.43
2019-01-21T14:07:26.924Z,23.50
2019-01-21T14:10:29.486Z,21.90
2019-01-21T14:13:40.285Z,21.33
2019-01-21T14:17:00.235Z,22.80
2019-01-21T14:20:16.623Z,23.47
2019-01-21T14:23:14.506Z,23.23
2019-01-21T14:26:24.806Z,23.13
2019-01-21T14:29:22.546Z,23.67
2019-01-21T14:32:16.416Z,23.70
2019-01-21T14:35:17.086Z,21.77
2019-01-21T14:38:55.572Z,25.17
2019-01-21T14:42:10.781Z,21.67
2019-01-21T14:45:31.680Z,23.47
2019-01-21T14:48:54.707Z,24.43
2019-01-21T14:52:00.508Z,27.20
2019-01-21T14:54:50.101Z,24.63
2019-01-21T14:58:15.641Z,24.03
2019-01-21T15:01:26.277Z,23.07
2019-01-21T15:04:52.839Z,29.13
2019-01-21T15:07:54.125Z,27.07
2019-01-21T15:11:02.257Z,28.43
2019-01-21T15:13:51.924Z,30.63
2019-01-21T15:17:04.663Z,27.27
2019-01-21T15:20:01.287Z,27.87
2019-01-21T15:23:30.536Z,29.70
2019-01-21T15:26:50.657Z,27.70
2019-01-21T15:30:03.988Z,29.20
2019-01-21T15:32:54.017Z,32.23
2019-01-21T15:36:00.521Z,30.63
2019-01-21T15:39:11.834Z,32.57
2019-01-21T15:42:14.779Z,32.73
2019-01-21T15:45:40.924Z,29.77
2019-01-21T15:48:41.856Z,33.43
2019-01-21T15:51:25.926Z,32.53
2019-01-21T15:54:30.606Z,34.57
2019-01-21T15:57:27.552Z,38.03
2019-01-21T16:00:33.310Z,38.07
2019-01-21T16:03:53.766Z,36.60
2019-01-21T16:06:52.707Z,37.80
2019-01-21T16:09:46.650Z,32.90
2019-01-21T16:13:10.507Z,35.13
2019-01-21T16:16:16.533Z,35.73
2019-01-21T16:19:08.217Z,39.20
2019-01-21T16:22:18.234Z,40.27
2019-01-21T16:25:21.755Z,37.43
2019-01-21T16:28:35.608Z,34.17
2019-01-21T16:31:19.216Z,36.23
2019-01-21T16:34:25.210Z,37.87
2019-01-21T16:37:13.097Z,34.17
2019-01-21T16:40:23.689Z,35.77
2019-01-21T16:42:53.056Z,36.33
2019-01-21T16:45:22.414Z,39.63
2019-01-21T16:47:51.654Z,37.17
2019-01-21T16:50:20.996Z,35.50
2019-01-21T16:52:50.283Z,37.33
2019-01-21T16:55:19.615Z,32.83
2019-01-21T16:57:49.008Z,33.10
2019-01-21T17:00:18.371Z,34.33
2019-01-21T17:02:47.891Z,38.20
2019-01-21T17:05:17.299Z,34.43
2019-01-21T17:07:46.673Z,39.17
2019-01-21T17:10:15.976Z,38.03
2019-01-21T17:12:45.442Z,35.07
2019-01-21T17:15:14.803Z,37.80
2019-01-21T17:17:44.406Z,33.93
2019-01-21T17:20:16.975Z,34.40
2019-01-21T17:22:46.340Z,36.60
2019-01-21T17:25:15.738Z,38.80
2019-01-21T17:27:45.134Z,35.27
2019-01-21T17:30:15.404Z,36.30
2019-01-21T17:32:44.712Z,33.07
2019-01-21T17:35:14.343Z,35.30
2019-01-21T17:37:43.651Z,34.90
2019-01-21T17:40:17.269Z,34.10
2019-01-21T17:42:46.560Z,36.00
2019-01-21T17:45:17.723Z,35.77
2019-01-21T17:47:46.979Z,34.77
2019-01-21T17:50:17.127Z,40.03
2019-01-21T17:52:46.484Z,38.00
2019-01-21T17:55:16.039Z,37.87
2019-01-21T17:57:45.316Z,37.23
2019-01-21T18:00:17.199Z,37.47
2019-01-21T18:02:46.581Z,37.40
2019-01-21T18:05:16.585Z,37.00
2019-01-21T18:07:45.302Z,37.90
2019-01-21T18:10:15.761Z,37.57
2019-01-21T18:12:45.081Z,38.43
2019-01-21T18:15:14.539Z,34.10
2019-01-21T18:17:43.877Z,38.13
2019-01-21T18:20:18.859Z,36.73
2019-01-21T18:22:48.189Z,37.43
2019-01-21T18:25:17.508Z,39.93
2019-01-21T18:27:49.722Z,39.97
2019-01-21T18:30:24.792Z,40.33
2019-01-21T18:32:54.090Z,35.00
2019-01-21T18:35:23.471Z,36.27
2019-01-21T18:37:52.843Z,38.67
2019-01-21T18:40:22.585Z,33.07
2019-01-21T18:42:51.998Z,34.17
2019-01-21T18:45:26.392Z,38.23
2019-01-21T18:47:55.863Z,40.57
2019-01-21T18:50:25.222Z,41.33
2019-01-21T18:52:54.884Z,37.20
2019-01-21T18:55:24.320Z,37.77
2019-01-21T18:57:56.006Z,37.47
2019-01-21T19:00:24.628Z,37.73
2019-01-21T19:02:54.086Z,40.03
2019-01-21T19:05:23.387Z,34.17
2019-01-21T19:07:53.743Z,37.37
2019-01-21T19:10:21.991Z,35.23
2019-01-21T19:12:52.000Z,40.67
2019-01-21T19:15:24.226Z,38.87
2019-01-21T19:17:53.521Z,38.10
2019-01-21T19:20:22.907Z,38.73
2019-01-21T19:22:52.167Z,39.53
2019-01-21T19:25:21.596Z,41.70
2019-01-21T19:27:50.995Z,36.50
2019-01-21T19:30:25.033Z,36.23
2019-01-21T19:32:54.812Z,37.90
2019-01-21T19:35:29.567Z,36.10
2019-01-21T19:37:58.890Z,42.63
2019-01-21T19:40:28.256Z,39.80
2019-01-21T19:42:57.648Z,37.00
2019-01-21T19:45:27.073Z,36.03
2019-01-21T19:47:56.398Z,39.23
2019-01-21T19:50:25.761Z,35.00
2019-01-21T19:52:55.038Z,36.50
2019-01-21T19:55:43.739Z,36.20
2019-01-21T19:58:13.478Z,37.37
2019-01-21T20:00:42.803Z,36.57
2019-01-21T20:03:12.085Z,37.23
2019-01-21T20:05:41.451Z,37.20
2019-01-21T20:08:10.744Z,37.73
2019-01-21T20:10:40.151Z,36.90
2019-01-21T20:13:09.439Z,36.07
2019-01-21T20:15:38.805Z,39.27
2019-01-21T20:18:08.389Z,35.47
2019-01-21T20:20:39.813Z,35.80
2019-01-21T20:23:09.224Z,40.37
2019-01-21T20:25:38.611Z,36.50
2019-01-21T20:28:08.014Z,36.67
2019-01-21T20:30:37.418Z,37.43
2019-01-21T20:33:06.737Z,37.57
2019-01-21T20:35:36.052Z,38.73
2019-01-21T20:38:05.640Z,39.00
2019-01-21T20:40:34.975Z,35.30
2019-01-21T20:43:04.337Z,39.03
2019-01-21T20:45:33.775Z,38.03
2019-01-21T20:48:03.153Z,37.80
2019-01-21T20:50:32.616Z,36.30
2019-01-21T20:53:02.076Z,37.50
2019-01-21T20:55:31.827Z,37.40
2019-01-21T20:58:01.183Z,35.87
2019-01-21T21:00:30.880Z,34.03
2019-01-21T21:03:00.389Z,32.63
2019-01-21T21:05:29.863Z,35.77
2019-01-21T21:07:59.265Z,33.83
2019-01-21T21:10:28.639Z,35.07
2019-01-21T21:13:01.014Z,35.90
2019-01-21T21:15:34.942Z,34.97
2019-01-21T21:18:01.843Z,37.47
2019-01-21T21:20:31.268Z,35.67
2019-01-21T21:23:00.613Z,32.10
2019-01-21T21:25:29.997Z,32.10
2019-01-21T21:28:00.017Z,35.07
2019-01-21T21:30:31.261Z,33.17
2019-01-21T21:33:00.629Z,33.47
2019-01-21T21:35:29.987Z,35.70
2019-01-21T21:37:59.402Z,33.50
2019-01-21T21:40:28.800Z,36.13
2019-01-21T21:42:58.209Z,37.60
2019-01-21T21:45:27.955Z,35.27
2019-01-21T21:48:00.805Z,34.97
2019-01-21T21:50:28.713Z,34.13
2019-01-21T21:52:58.042Z,32.27
2019-01-21T21:55:27.499Z,29.43
2019-01-21T21:57:57.524Z,34.43
2019-01-21T22:00:27.421Z,34.27
2019-01-21T22:02:56.777Z,32.20
2019-01-21T22:05:26.148Z,32.67
2019-01-21T22:07:55.535Z,32.33
2019-01-21T22:10:26.774Z,34.20
2019-01-21T22:12:56.191Z,35.80
2019-01-21T22:15:26.550Z,33.37
2019-01-21T22:17:56.035Z,32.50
2019-01-21T22:20:25.702Z,32.67
2019-01-21T22:22:55.014Z,33.27
2019-01-21T22:25:24.501Z,32.40
2019-01-21T22:27:53.887Z,30.97
2019-01-21T22:30:27.862Z,30.90
2019-01-21T22:32:54.711Z,33.33
2019-01-21T22:35:24.235Z,35.53
2019-01-21T22:37:53.550Z,33.90
2019-01-21T22:40:27.291Z,33.33
2019-01-21T22:42:56.573Z,38.03
2019-01-21T22:45:25.901Z,39.77
2019-01-21T22:47:55.172Z,32.03
2019-01-21T22:50:24.474Z,32.27
2019-01-21T22:52:56.894Z,32.90
2019-01-21T22:55:31.520Z,32.17
2019-01-21T22:58:00.793Z,36.60
2019-01-21T23:00:54.881Z,33.60
2019-01-21T23:03:24.978Z,35.10
2019-01-21T23:05:54.244Z,34.43
2019-01-21T23:08:23.500Z,35.07
2019-01-21T23:10:52.838Z,35.73
2019-01-21T23:13:22.188Z,34.87
2019-01-21T23:15:51.490Z,32.30
2019-01-21T23:18:20.898Z,33.47
2019-01-21T23:20:50.269Z,34.43
2019-01-21T23:23:19.589Z,32.10
2019-01-21T23:25:49.299Z,34.03
2019-01-21T23:28:18.604Z,35.00
2019-01-21T23:30:47.873Z,35.00
2019-01-21T23:33:17.157Z,34.77
2019-01-21T23:35:46.514Z,32.80
2019-01-21T23:38:15.929Z,31.80
2019-01-21T23:40:45.201Z,34.73
2019-01-21T23:43:14.494Z,35.67
2019-01-21T23:45:43.772Z,35.67
2019-01-21T23:48:13.136Z,35.17
2019-01-21T23:50:42.404Z,37.37
2019-01-21T23:53:11.727Z,42.13
2019-01-21T23:55:41.018Z,38.10
2019-01-21T23:58:10.367Z,42.10
